Terminal Aerodrome Forecast
Issued by NWS

Home | Current Version | Previous Version | Text Only | Print | Product List | Glossary On
Versions: 1 2 3 4 5 6 7 8 9 10 11 12 13 14 15 16 17 18 19 20 21 22 23 24 25 26 27 28
000
FTUS45 KGJT 231133
TAFDRO
TAF
KDRO 231133Z 2312/2412 07006KT P6SM BKN100
     FM231500 13005KT P6SM -SHRA VCTS SCT035CB BKN080
     FM231800 21007KT P6SM VCTS SCT030CB BKN050
     FM232300 16008KT P6SM VCTS SCT040CB BKN070
     FM240100 13006KT P6SM SCT040 BKN080
     FM240300 VRB03KT P6SM FEW045 SCT090=

USA.gov is the U.S. government's official web portal to all federal, state and local government web resources and services.